Time;durP1;ratioP1;P1;durP2;ratioP2;P2;SDS_P1;SDS_P2;PMS_P1;PMS_P2;Temp;Humidity;BMP_temperature;BMP_pressure;BME280_temperature;BME280_humidity;BME280_pressure;Samples;Min_cycle;Max_cycle;Signal;HPM_P1;HPM_P2
2022/08/31 00:04:47;;;;;;;0.25;0.25;;;23.90;74.10;;;;;;5036683;28;20033;-67
2022/08/31 00:07:13;;;;;;;0.00;0.00;;;23.90;74.30;;;;;;5051753;28;20029;-67
2022/08/31 00:09:39;;;;;;;1.35;0.95;;;23.90;74.50;;;;;;5033732;28;20064;-66
2022/08/31 00:12:05;;;;;;;0.17;0.08;;;23.80;74.50;;;;;;5051541;28;20124;-67
2022/08/31 00:14:30;;;;;;;0.10;0.10;;;23.90;74.60;;;;;;5051460;28;20067;-67
2022/08/31 00:16:56;;;;;;;0.17;0.15;;;23.90;74.70;;;;;;5051325;28;20033;-67
2022/08/31 00:19:22;;;;;;;0.17;0.15;;;23.80;74.60;;;;;;5051366;28;20199;-66
2022/08/31 00:21:48;;;;;;;0.10;0.10;;;23.90;74.30;;;;;;5051411;28;20057;-67
2022/08/31 00:24:14;;;;;;;0.35;0.35;;;24.00;74.50;;;;;;5051229;28;20033;-67
2022/08/31 00:26:41;;;;;;;0.70;0.70;;;24.00;74.40;;;;;;5051443;28;20060;-66
2022/08/31 00:29:07;;;;;;;0.03;0.03;;;24.00;74.50;;;;;;5033050;28;20439;-67
2022/08/31 00:31:33;;;;;;;0.00;0.00;;;23.90;74.60;;;;;;5033770;28;20047;-67
2022/08/31 00:33:59;;;;;;;0.10;0.10;;;23.90;75.20;;;;;;5051134;28;20473;-67
2022/08/31 00:36:26;;;;;;;1.65;0.63;;;23.70;75.60;;;;;;5051074;28;20028;-67
2022/08/31 00:38:55;;;;;;;0.52;0.40;;;23.70;76.40;;;;;;5033378;28;20056;-66
2022/08/31 00:41:25;;;;;;;1.70;0.80;;;23.60;76.60;;;;;;5033635;28;20057;-66
2022/08/31 00:44:01;;;;;;;1.13;0.40;;;23.50;77.20;;;;;;5033415;28;20108;-66
2022/08/31 00:46:36;;;;;;;0.05;0.05;;;23.50;77.30;;;;;;5051066;28;20029;-67
2022/08/31 00:49:09;;;;;;;9.18;0.57;;;23.30;77.60;;;;;;5051136;28;20639;-67
2022/08/31 00:52:26;;;;;;;0.70;0.68;;;23.20;78.20;;;;;;5033748;28;20029;-67
2022/08/31 00:54:59;;;;;;;0.10;0.10;;;23.30;78.10;;;;;;5028447;28;20125;-67
2022/08/31 00:57:32;;;;;;;0.80;0.55;;;23.30;78.00;;;;;;5033632;28;20111;-67
2022/08/31 01:00:03;;;;;;;0.00;0.00;;;23.20;77.90;;;;;;5050836;28;20067;-67
2022/08/31 01:02:29;;;;;;;0.15;0.15;;;23.20;78.10;;;;;;5033283;28;20036;-67
2022/08/31 01:04:55;;;;;;;0.20;0.20;;;23.10;78.30;;;;;;5026292;28;20030;-67
2022/08/31 01:07:22;;;;;;;0.55;0.55;;;23.10;78.50;;;;;;5032990;28;20035;-66
2022/08/31 01:09:48;;;;;;;0.10;0.00;;;23.10;78.70;;;;;;5047329;28;20587;-66
2022/08/31 01:12:14;;;;;;;0.73;0.50;;;23.00;78.80;;;;;;5050534;28;20059;-67
2022/08/31 01:14:41;;;;;;;0.63;0.57;;;23.00;79.10;;;;;;5050605;28;20064;-67
2022/08/31 01:17:08;;;;;;;0.00;0.00;;;23.00;79.40;;;;;;5032712;28;20031;-67
2022/08/31 01:19:40;;;;;;;0.60;0.60;;;22.90;79.60;;;;;;5050520;28;20025;-67
2022/08/31 01:22:37;;;;;;;0.52;0.47;;;22.90;79.90;;;;;;5033135;28;20029;-67
2022/08/31 01:25:04;;;;;;;1.23;0.63;;;23.00;80.20;;;;;;5033332;28;20045;-67
2022/08/31 01:27:34;;;;;;;0.90;0.85;;;23.00;80.30;;;;;;5029138;28;20032;-66
2022/08/31 01:30:10;;;;;;;0.30;0.30;;;23.00;80.50;;;;;;5029476;28;20029;-67
2022/08/31 01:32:37;;;;;;;0.10;0.10;;;22.90;81.20;;;;;;5029221;28;20071;-66
2022/08/31 01:35:04;;;;;;;1.25;0.15;;;22.80;82.00;;;;;;5029395;28;20432;-66
2022/08/31 01:37:30;;;;;;;0.30;0.20;;;22.70;83.20;;;;;;5029055;28;20044;-66
2022/08/31 01:39:56;;;;;;;0.15;0.15;;;22.50;86.70;;;;;;5030330;28;20116;-67
2022/08/31 01:42:21;;;;;;;0.10;0.10;;;22.30;91.40;;;;;;5052527;28;20103;-66
2022/08/31 01:44:47;;;;;;;0.10;0.10;;;22.20;94.10;;;;;;5053977;28;20067;-66
2022/08/31 01:47:13;;;;;;;2.70;1.23;;;22.10;96.50;;;;;;5036157;28;20639;-67
2022/08/31 01:49:39;;;;;;;0.40;0.20;;;22.10;98.90;;;;;;5054325;28;20055;-67
2022/08/31 01:52:05;;;;;;;0.13;0.13;;;21.90;99.90;;;;;;5054020;28;20028;-67
2022/08/31 01:54:31;;;;;;;0.20;0.17;;;21.90;99.90;;;;;;5053885;28;20060;-67
2022/08/31 01:56:57;;;;;;;0.52;0.32;;;21.80;99.90;;;;;;5053952;28;20063;-67
2022/08/31 01:59:23;;;;;;;1.08;0.93;;;21.70;99.90;;;;;;5053916;28;20037;-67
2022/08/31 02:01:52;;;;;;;0.08;0.08;;;21.60;99.90;;;;;;5053976;28;20036;-66
2022/08/31 02:04:22;;;;;;;1.55;0.85;;;21.60;99.90;;;;;;5036096;28;20536;-67
2022/08/31 02:06:53;;;;;;;0.10;0.10;;;21.60;99.90;;;;;;5053781;28;20123;-67
2022/08/31 02:09:21;;;;;;;;;;;21.70;99.90;;;;;;5036239;28;20287;-66
2022/08/31 02:11:47;;;;;;;0.32;0.28;;;21.70;99.90;;;;;;5053757;28;19928;-66
2022/08/31 02:14:14;;;;;;;0.93;0.88;;;21.60;99.90;;;;;;5053022;28;20400;-67
2022/08/31 02:16:40;;;;;;;4.47;0.75;;;21.30;99.90;;;;;;5033696;28;20017;-66
2022/08/31 02:19:06;;;;;;;0.65;0.50;;;21.20;99.90;;;;;;5033702;28;20037;-66
2022/08/31 02:21:32;;;;;;;0.57;0.57;;;21.20;99.90;;;;;;5033745;28;20055;-67
2022/08/31 02:23:58;;;;;;;0.68;0.68;;;21.10;99.90;;;;;;5052363;23;20057;-70
2022/08/31 02:26:24;;;;;;;0.60;0.55;;;21.00;99.90;;;;;;5035421;28;20033;-70
2022/08/31 02:28:50;;;;;;;3.97;0.57;;;21.00;99.90;;;;;;5053180;28;20052;-70
2022/08/31 02:31:16;;;;;;;0.22;0.22;;;21.00;99.90;;;;;;5052809;28;20025;-70
2022/08/31 02:33:44;;;;;;;0.10;0.10;;;21.20;99.90;;;;;;5045428;28;20112;-70
2022/08/31 02:36:11;;;;;;;2.53;0.43;;;21.10;99.90;;;;;;5033100;28;20029;-69
2022/08/31 02:38:38;;;;;;;0.03;0.03;;;21.10;99.90;;;;;;5031931;28;20025;-71
2022/08/31 02:41:06;;;;;;;1.60;0.65;;;21.00;99.90;;;;;;5033154;28;20033;-70
2022/08/31 02:43:32;;;;;;;0.30;0.30;;;21.00;99.90;;;;;;5031554;28;20029;-70
2022/08/31 02:45:58;;;;;;;3.70;0.57;;;21.00;99.90;;;;;;5031974;28;20757;-70
2022/08/31 02:48:23;;;;;;;0.40;0.40;;;21.10;99.90;;;;;;5031961;28;20029;-70
2022/08/31 02:50:51;;;;;;;0.55;0.55;;;21.00;99.90;;;;;;5032776;28;20056;-71
2022/08/31 02:53:21;;;;;;;0.45;0.43;;;21.00;99.90;;;;;;5032069;28;20136;-70
2022/08/31 02:55:48;;;;;;;0.35;0.35;;;21.00;99.90;;;;;;5033160;28;20121;-71
2022/08/31 02:58:14;;;;;;;0.20;0.20;;;20.90;99.90;;;;;;5032807;28;20029;-70
2022/08/31 03:00:45;;;;;;;0.40;0.32;;;20.90;99.90;;;;;;5032575;28;20103;-70
2022/08/31 03:03:11;;;;;;;;;;;20.90;99.90;;;;;;5031797;28;20068;-70
2022/08/31 03:05:37;;;;;;;0.45;0.45;;;20.90;99.90;;;;;;5031518;28;19982;-70
2022/08/31 03:08:03;;;;;;;0.32;0.32;;;20.90;99.90;;;;;;5032780;28;20478;-70
2022/08/31 03:10:29;;;;;;;1.95;0.80;;;20.80;99.90;;;;;;5032305;28;20415;-70
2022/08/31 03:12:55;;;;;;;2.15;0.55;;;20.80;99.90;;;;;;5032404;28;20033;-70
2022/08/31 03:15:23;;;;;;;0.10;0.10;;;20.80;99.90;;;;;;5032830;28;20026;-70
2022/08/31 03:17:49;;;;;;;0.10;0.10;;;20.70;99.90;;;;;;5031378;28;20067;-70
2022/08/31 03:20:18;;;;;;;0.63;0.45;;;20.70;99.90;;;;;;5032430;28;20053;-70
2022/08/31 03:22:43;;;;;;;0.75;0.38;;;20.70;99.90;;;;;;5032145;28;20103;-71
2022/08/31 03:25:10;;;;;;;1.13;0.35;;;20.70;99.90;;;;;;5031092;28;20501;-70
2022/08/31 03:27:37;;;;;;;1.30;1.10;;;20.60;99.90;;;;;;5023584;28;20026;-70
2022/08/31 03:30:08;;;;;;;0.10;0.10;;;20.60;99.90;;;;;;5020324;28;20022;-70
2022/08/31 03:32:34;;;;;;;0.50;0.50;;;20.60;99.90;;;;;;5012570;28;20085;-70
2022/08/31 03:35:01;;;;;;;0.50;0.50;;;20.60;99.90;;;;;;5019428;28;20071;-70
2022/08/31 03:37:27;;;;;;;0.10;0.10;;;20.60;99.90;;;;;;5032165;28;20037;-71
2022/08/31 03:39:53;;;;;;;0.28;0.28;;;20.60;99.90;;;;;;5014227;28;20040;-70
2022/08/31 03:42:19;;;;;;;0.73;0.65;;;20.60;99.90;;;;;;5031873;28;20417;-70
2022/08/31 03:44:46;;;;;;;0.45;0.40;;;20.60;99.90;;;;;;5030533;28;20049;-71
2022/08/31 03:47:12;;;;;;;0.30;0.30;;;20.50;99.90;;;;;;5030567;28;20152;-70
2022/08/31 03:49:38;;;;;;;3.75;1.00;;;20.50;99.90;;;;;;5031742;28;20484;-71
2022/08/31 03:52:04;;;;;;;0.80;0.80;;;20.50;99.90;;;;;;5031621;28;20037;-71
2022/08/31 03:54:30;;;;;;;0.32;0.32;;;20.50;99.90;;;;;;5031592;28;20465;-71
2022/08/31 03:56:56;;;;;;;0.10;0.10;;;20.50;99.90;;;;;;5030294;28;20033;-70
2022/08/31 03:59:22;;;;;;;0.52;0.52;;;20.50;99.90;;;;;;5030289;28;20040;-71
2022/08/31 04:01:48;;;;;;;1.63;0.65;;;20.50;99.90;;;;;;5031735;28;20087;-71
2022/08/31 04:04:14;;;;;;;0.93;0.52;;;20.50;99.90;;;;;;5029831;28;20063;-71
2022/08/31 04:06:43;;;;;;;2.58;0.73;;;20.40;99.90;;;;;;5030182;28;20049;-71
2022/08/31 04:09:09;;;;;;;0.10;0.10;;;20.40;99.90;;;;;;5031174;28;20344;-71
2022/08/31 04:11:40;;;;;;;0.47;0.47;;;20.50;99.90;;;;;;5031561;28;20441;-71
2022/08/31 04:14:06;;;;;;;2.40;1.17;;;20.40;99.90;;;;;;5029748;28;20079;-71
2022/08/31 04:16:33;;;;;;;0.68;0.68;;;20.40;99.90;;;;;;5030028;28;20021;-70
2022/08/31 04:19:00;;;;;;;0.55;0.35;;;20.40;99.90;;;;;;5031113;28;20025;-70
2022/08/31 04:21:29;;;;;;;1.55;1.10;;;20.50;99.90;;;;;;4979258;28;20124;-70
2022/08/31 04:23:56;;;;;;;1.58;1.08;;;20.50;99.90;;;;;;5029343;28;20030;-70
2022/08/31 04:26:25;;;;;;;0.88;0.80;;;20.50;99.90;;;;;;5030941;28;20524;-71
2022/08/31 04:28:52;;;;;;;0.80;0.60;;;20.60;99.90;;;;;;5031088;28;20444;-70
2022/08/31 04:31:20;;;;;;;0.77;0.63;;;20.60;99.90;;;;;;5031134;28;20628;-71
2022/08/31 04:33:46;;;;;;;0.68;0.65;;;20.60;99.90;;;;;;5030952;28;20041;-66
2022/08/31 04:36:17;;;;;;;0.38;0.38;;;20.80;99.90;;;;;;5030817;28;20733;-65
2022/08/31 04:38:45;;;;;;;;;;;20.80;99.90;;;;;;5031321;28;20029;-65
2022/08/31 04:41:14;;;;;;;0.10;0.10;;;20.90;99.90;;;;;;5030519;28;19912;-65
2022/08/31 04:43:48;;;;;;;3.83;0.98;;;20.90;99.90;;;;;;5030619;28;20439;-65
2022/08/31 04:46:15;;;;;;;2.03;0.98;;;20.90;99.90;;;;;;5030739;28;20058;-65
2022/08/31 04:48:41;;;;;;;7.72;0.82;;;20.90;99.90;;;;;;5029549;28;20026;-65
2022/08/31 04:51:11;;;;;;;4.45;1.30;;;21.00;99.90;;;;;;5030279;28;20033;-65
2022/08/31 04:53:38;;;;;;;2.85;1.40;;;20.90;99.90;;;;;;5029293;28;20028;-66
2022/08/31 04:56:14;;;;;;;2.78;1.70;;;20.90;99.90;;;;;;5030650;28;20048;-65
2022/08/31 04:58:47;;;;;;;2.80;1.40;;;21.00;99.90;;;;;;5029680;28;20037;-66
2022/08/31 05:01:16;;;;;;;13.27;1.83;;;21.00;99.90;;;;;;5030800;28;20045;-65
2022/08/31 05:03:42;;;;;;;8.15;2.53;;;21.00;99.90;;;;;;5030180;28;20034;-65
2022/08/31 05:06:14;;;;;;;6.13;2.17;;;21.00;99.90;;;;;;5030658;28;20619;-65
2022/08/31 05:08:41;;;;;;;2.45;1.58;;;20.90;99.90;;;;;;5045885;28;20026;-65
2022/08/31 05:11:12;;;;;;;17.77;2.42;;;20.90;99.90;;;;;;5029439;28;20028;-65
2022/08/31 05:13:39;;;;;;;2.05;1.33;;;20.90;99.90;;;;;;5030220;28;20025;-65
2022/08/31 05:16:09;;;;;;;6.70;1.73;;;20.90;99.90;;;;;;5030711;28;20077;-65
2022/08/31 05:18:40;;;;;;;3.38;2.42;;;21.00;99.90;;;;;;5034502;28;20029;-64
2022/08/31 05:21:27;;;;;;;1.92;1.33;;;21.10;99.90;;;;;;5034524;28;20045;-65
2022/08/31 05:23:59;;;;;;;2.42;1.17;;;21.10;99.90;;;;;;5034358;28;20486;-64
2022/08/31 05:26:30;;;;;;;2.10;1.30;;;21.20;99.90;;;;;;5032917;28;20413;-66
2022/08/31 05:28:58;;;;;;;2.90;1.38;;;21.20;99.90;;;;;;5029459;28;20049;-66
2022/08/31 05:31:23;;;;;;;3.13;1.23;;;21.10;99.90;;;;;;5014558;28;20117;-66
2022/08/31 05:33:50;;;;;;;2.95;1.67;;;21.10;99.90;;;;;;5033555;28;20171;-66
2022/08/31 05:36:16;;;;;;;2.80;1.63;;;21.20;99.90;;;;;;5034128;28;20649;-66
2022/08/31 05:38:42;;;;;;;2.00;0.98;;;21.20;99.90;;;;;;5034433;28;20127;-66
2022/08/31 05:41:09;;;;;;;3.05;1.25;;;21.10;99.90;;;;;;5032544;28;20148;-66
2022/08/31 05:43:36;;;;;;;2.67;1.45;;;21.20;99.90;;;;;;5033819;28;20394;-66
2022/08/31 05:46:09;;;;;;;6.25;1.90;;;21.20;99.90;;;;;;5033977;28;20029;-66
2022/08/31 05:48:36;;;;;;;1.90;0.90;;;21.20;99.90;;;;;;5032737;28;20057;-66
2022/08/31 05:51:11;;;;;;;4.45;1.77;;;21.20;99.90;;;;;;5032716;28;20028;-67
2022/08/31 05:53:38;;;;;;;2.72;1.63;;;21.20;99.90;;;;;;5032414;28;20083;-66
2022/08/31 05:56:11;;;;;;;2.20;1.65;;;21.20;99.90;;;;;;5033771;28;20107;-66
2022/08/31 05:58:42;;;;;;;8.07;0.90;;;21.30;99.90;;;;;;5033860;28;20037;-66
2022/08/31 06:01:19;;;;;;;;;;;21.30;99.90;;;;;;5016448;28;20105;-66
2022/08/31 06:03:46;;;;;;;2.05;1.30;;;21.30;99.90;;;;;;5028967;28;19909;-66
2022/08/31 06:06:13;;;;;;;3.25;1.55;;;21.20;99.90;;;;;;5013919;28;20093;-65
2022/08/31 06:08:40;;;;;;;3.50;1.40;;;21.00;99.90;;;;;;5029054;28;20033;-64
2022/08/31 06:11:13;;;;;;;1.85;1.00;;;21.00;99.90;;;;;;5013944;28;20084;-64
2022/08/31 06:13:39;;;;;;;4.70;2.35;;;21.00;99.90;;;;;;5027834;28;20026;-64
2022/08/31 06:16:05;;;;;;;3.25;1.75;;;21.00;99.90;;;;;;5023246;28;20429;-64
2022/08/31 06:18:31;;;;;;;2.42;1.58;;;21.00;99.90;;;;;;5008861;28;20507;-64
2022/08/31 06:21:08;;;;;;;2.20;1.35;;;21.00;99.90;;;;;;5013397;28;20026;-64
2022/08/31 06:23:43;;;;;;;3.92;1.40;;;21.10;99.90;;;;;;5011667;28;20030;-64
2022/08/31 06:26:14;;;;;;;2.20;1.38;;;21.00;99.90;;;;;;5019481;28;20037;-64
2022/08/31 06:28:45;;;;;;;4.05;1.88;;;21.10;99.90;;;;;;5024839;28;20064;-64
2022/08/31 06:31:25;;;;;;;1.95;1.15;;;21.00;99.90;;;;;;5029028;28;20330;-64
2022/08/31 06:33:54;;;;;;;3.08;1.38;;;21.00;99.90;;;;;;5026363;28;20117;-66
2022/08/31 06:36:25;;;;;;;3.22;1.35;;;21.00;99.90;;;;;;5047436;28;20026;-65
2022/08/31 06:38:52;;;;;;;1.63;1.13;;;21.10;99.90;;;;;;5042885;28;20041;-65
2022/08/31 06:41:22;;;;;;;2.88;1.42;;;21.20;99.90;;;;;;5029848;28;20038;-65
2022/08/31 06:43:49;;;;;;;2.25;1.83;;;21.20;99.90;;;;;;5029855;28;20033;-64
2022/08/31 06:46:17;;;;;;;3.47;1.50;;;21.20;99.90;;;;;;5031830;28;20049;-64
2022/08/31 06:48:43;;;;;;;3.50;1.48;;;21.30;99.90;;;;;;5027689;28;20056;-65
2022/08/31 06:51:10;;;;;;;2.40;1.35;;;21.30;99.90;;;;;;5032165;28;20033;-65
2022/08/31 06:53:39;;;;;;;5.32;1.80;;;21.30;99.90;;;;;;5030244;28;20032;-65
2022/08/31 06:56:11;;;;;;;3.05;1.30;;;21.40;99.90;;;;;;5041136;28;20045;-65
2022/08/31 06:58:38;;;;;;;2.60;1.73;;;21.50;99.90;;;;;;5023318;28;20025;-65
2022/08/31 07:01:07;;;;;;;1.98;1.20;;;21.50;99.90;;;;;;5020878;28;20116;-65
2022/08/31 07:03:36;;;;;;;7.93;1.75;;;21.40;99.90;;;;;;5030032;28;20029;-65
2022/08/31 07:06:13;;;;;;;4.22;1.92;;;21.40;99.90;;;;;;5044268;28;20033;-65
2022/08/31 07:08:40;;;;;;;2.22;1.15;;;21.40;99.90;;;;;;5030258;28;20029;-66
2022/08/31 07:11:17;;;;;;;1.92;1.60;;;21.30;99.90;;;;;;5046404;28;20064;-66
2022/08/31 07:13:43;;;;;;;2.25;1.55;;;21.20;99.90;;;;;;5024725;28;20033;-66
2022/08/31 07:16:13;;;;;;;2.45;1.23;;;21.20;99.90;;;;;;5030727;28;20046;-65
2022/08/31 07:18:40;;;;;;;2.43;1.60;;;21.10;99.90;;;;;;5025340;28;20304;-66
2022/08/31 07:21:10;;;;;;;1.75;1.00;;;21.00;99.90;;;;;;5021804;28;20040;-66
2022/08/31 07:23:37;;;;;;;2.63;1.48;;;21.00;99.90;;;;;;5030980;28;20044;-66
2022/08/31 07:26:09;;;;;;;1.35;0.95;;;20.90;99.90;;;;;;5029806;28;20117;-66
2022/08/31 07:28:37;;;;;;;6.38;1.48;;;20.80;99.90;;;;;;5029732;28;20018;-64
2022/08/31 07:31:04;;;;;;;7.22;2.22;;;20.70;99.90;;;;;;5028145;28;20422;-65
2022/08/31 07:33:37;;;;;;;3.47;1.20;;;20.70;99.90;;;;;;5028143;28;20068;-64
2022/08/31 07:36:07;;;;;;;2.15;1.17;;;20.70;99.90;;;;;;5041659;28;20375;-64
2022/08/31 07:44:02;;;;;;;1.33;0.80;;;20.50;99.90;;;;;;5030227;28;20439;-64
2022/08/31 07:46:31;;;;;;;1.88;1.10;;;20.40;99.90;;;;;;5041093;28;20034;-64
2022/08/31 07:48:58;;;;;;;5.68;1.35;;;20.10;99.90;;;;;;5025340;28;20056;-64
2022/08/31 07:51:25;;;;;;;3.03;1.30;;;20.10;99.90;;;;;;5030824;28;20033;-64
2022/08/31 07:53:52;;;;;;;2.13;1.27;;;19.90;99.90;;;;;;5029327;28;20034;-65
2022/08/31 07:56:20;;;;;;;1.17;0.98;;;19.90;99.90;;;;;;5041931;28;20029;-65
2022/08/31 07:58:46;;;;;;;1.73;1.27;;;19.80;99.90;;;;;;5030835;28;20036;-65
2022/08/31 08:01:13;;;;;;;0.65;0.65;;;19.60;99.90;;;;;;5023993;28;20041;-64
2022/08/31 08:03:42;;;;;;;4.47;2.00;;;19.60;99.90;;;;;;5027970;28;20041;-64
2022/08/31 08:06:14;;;;;;;1.52;0.93;;;19.60;99.90;;;;;;5028975;28;20417;-64
2022/08/31 08:08:43;;;;;;;1.98;1.42;;;19.40;99.90;;;;;;5030014;28;20133;-64
2022/08/31 08:11:20;;;;;;;5.20;1.92;;;19.50;99.90;;;;;;5022818;28;20037;-64
2022/08/31 08:13:48;;;;;;;2.60;1.25;;;19.20;99.90;;;;;;5027888;28;20030;-64
2022/08/31 08:16:14;;;;;;;2.70;1.25;;;19.30;99.90;;;;;;5031636;28;20033;-64
2022/08/31 08:18:40;;;;;;;3.05;1.77;;;19.00;99.90;;;;;;5028097;28;20140;-64
2022/08/31 08:21:07;;;;;;;1.23;0.82;;;19.00;99.90;;;;;;5022471;28;20494;-64
2022/08/31 08:23:33;;;;;;;3.25;1.88;;;19.00;99.90;;;;;;5039840;23;20125;-68
2022/08/31 08:26:07;;;;;;;1.08;0.95;;;18.80;99.90;;;;;;5009665;28;20053;-68
2022/08/31 08:28:33;;;;;;;5.88;1.90;;;18.90;99.90;;;;;;5006406;28;20079;-68
2022/08/31 08:31:02;;;;;;;2.95;1.48;;;18.70;99.90;;;;;;5002511;28;20430;-68
2022/08/31 08:33:30;;;;;;;11.30;1.05;;;18.60;99.90;;;;;;4973696;28;20437;-67
2022/08/31 08:36:01;;;;;;;1.55;0.77;;;18.50;99.90;;;;;;4991059;28;20054;-68
2022/08/31 08:38:30;;;;;;;3.60;1.55;;;18.60;99.90;;;;;;4985196;28;20121;-68
2022/08/31 08:41:03;;;;;;;1.38;0.70;;;18.50;99.90;;;;;;4985610;28;20069;-68
2022/08/31 08:43:38;;;;;;;1.23;0.98;;;18.50;99.90;;;;;;4990560;28;20034;-70
2022/08/31 08:46:07;;;;;;;1.50;0.73;;;18.40;99.90;;;;;;4981442;28;20040;-69
2022/08/31 08:48:38;;;;;;;1.23;0.73;;;18.30;99.90;;;;;;5002614;28;20026;-69
2022/08/31 08:51:18;;;;;;;1.20;1.10;;;18.30;99.90;;;;;;4980947;28;20487;-69
2022/08/31 08:53:48;;;;;;;3.88;1.30;;;18.40;99.90;;;;;;4988102;28;20034;-69
2022/08/31 08:56:15;;;;;;;1.13;0.93;;;18.50;99.90;;;;;;4988253;28;20037;-68
2022/08/31 08:58:42;;;;;;;0.45;0.43;;;18.40;99.90;;;;;;4982614;28;20045;-69
2022/08/31 09:01:17;;;;;;;0.80;0.60;;;18.50;99.90;;;;;;4985256;28;20081;-69
2022/08/31 09:04:06;;;;;;;1.52;0.90;;;18.40;99.90;;;;;;4975531;28;20035;-69
2022/08/31 09:06:52;;;;;;;1.60;0.93;;;18.30;99.90;;;;;;4998309;28;20096;-70
2022/08/31 09:09:28;;;;;;;12.15;1.73;;;18.30;99.90;;;;;;4990701;28;20025;-69
2022/08/31 09:12:40;;;;;;;2.03;1.05;;;18.40;99.90;;;;;;4995679;28;20031;-69
2022/08/31 09:15:37;;;;;;;3.25;1.40;;;18.30;99.90;;;;;;4990524;28;20081;-69
2022/08/31 09:18:19;;;;;;;0.85;0.73;;;18.20;99.90;;;;;;5005386;28;20489;-69
2022/08/31 09:21:06;;;;;;;0.60;0.60;;;18.50;99.90;;;;;;5000147;28;20495;-69
2022/08/31 09:23:47;;;;;;;1.25;0.93;;;18.40;99.90;;;;;;5005874;28;20034;-68
2022/08/31 09:26:19;;;;;;;5.32;2.33;;;18.40;99.90;;;;;;4979301;28;20034;-69
2022/08/31 09:28:49;;;;;;;1.42;0.95;;;18.50;99.90;;;;;;4988436;28;20045;-69
2022/08/31 09:31:38;;;;;;;3.70;1.27;;;18.50;99.90;;;;;;4986673;28;20486;-69
2022/08/31 09:34:30;;;;;;;1.15;0.90;;;18.50;99.90;;;;;;4978215;28;20707;-69
2022/08/31 09:37:14;;;;;;;0.88;0.75;;;18.50;99.90;;;;;;4995412;28;20030;-69
2022/08/31 09:39:46;;;;;;;1.98;1.10;;;18.50;99.90;;;;;;4990431;28;20129;-69
2022/08/31 09:42:32;;;;;;;2.33;1.23;;;18.50;99.90;;;;;;4998092;28;20041;-69
2022/08/31 09:45:10;;;;;;;2.33;1.40;;;18.50;99.90;;;;;;4990512;28;20081;-69
2022/08/31 09:47:47;;;;;;;1.77;1.00;;;18.60;99.90;;;;;;4980228;28;20108;-69
2022/08/31 09:50:33;;;;;;;3.20;1.70;;;18.60;99.90;;;;;;4998406;28;20036;-69
2022/08/31 09:56:19;;;;;;;9.45;1.25;;;18.70;99.90;;;;;;4994273;28;20034;-69
2022/08/31 09:58:52;;;;;;;2.55;1.40;;;18.70;99.90;;;;;;4981569;28;20117;-69
2022/08/31 10:01:34;;;;;;;4.93;1.33;;;18.80;99.90;;;;;;4995987;28;20113;-69
2022/08/31 10:04:27;;;;;;;11.43;2.22;;;18.90;99.90;;;;;;4994228;28;20038;-69
2022/08/31 10:07:33;;;;;;;2.15;1.60;;;19.00;99.90;;;;;;5005781;28;20039;-70
2022/08/31 10:10:09;;;;;;;2.45;1.30;;;19.10;99.90;;;;;;4993544;28;20026;-69
2022/08/31 10:13:05;;;;;;;2.60;1.48;;;19.10;99.90;;;;;;4979797;28;20112;-69
2022/08/31 10:16:01;;;;;;;2.40;1.52;;;19.20;99.90;;;;;;4999560;28;20033;-69
2022/08/31 10:19:13;;;;;;;5.07;2.25;;;19.10;99.90;;;;;;4992000;28;20065;-69
2022/08/31 10:21:52;;;;;;;2.00;1.45;;;19.10;99.90;;;;;;4979551;28;20042;-69
2022/08/31 10:24:45;;;;;;;1.67;1.42;;;19.00;99.90;;;;;;4993318;28;20513;-69
2022/08/31 10:27:37;;;;;;;0.88;0.82;;;19.30;99.90;;;;;;4978977;28;20027;-69
2022/08/31 10:30:34;;;;;;;3.05;1.75;;;19.50;99.90;;;;;;4984766;28;20137;-69
2022/08/31 10:33:21;;;;;;;3.70;1.65;;;19.70;99.90;;;;;;4993110;28;20030;-70
2022/08/31 10:35:54;;;;;;;4.50;1.75;;;19.90;99.90;;;;;;4979308;28;20039;-69
2022/08/31 10:38:41;;;;;;;4.13;2.15;;;20.20;99.90;;;;;;5012129;28;20038;-70
2022/08/31 10:41:27;;;;;;;5.85;2.17;;;20.10;99.90;;;;;;4980214;28;20117;-70
2022/08/31 10:44:22;;;;;;;1.75;1.00;;;19.90;99.90;;;;;;4992014;28;20192;-71
2022/08/31 10:46:53;;;;;;;2.72;1.33;;;20.30;99.90;;;;;;4996460;28;20030;-71
2022/08/31 10:49:20;;;;;;;3.92;1.83;;;20.50;99.90;;;;;;4995457;28;20037;-70
2022/08/31 10:52:09;;;;;;;2.40;1.45;;;20.60;99.90;;;;;;4986474;28;20039;-71
2022/08/31 10:54:50;;;;;;;2.63;1.45;;;20.50;99.90;;;;;;4991507;28;20030;-72
2022/08/31 10:57:33;;;;;;;4.07;1.67;;;20.60;99.90;;;;;;4997605;28;20438;-71
2022/08/31 11:03:36;;;;;;;2.35;1.83;;;20.60;99.90;;;;;;4994479;28;20486;-72
2022/08/31 11:06:33;;;;;;;5.05;2.00;;;20.80;99.90;;;;;;5009305;28;20442;-71
2022/08/31 11:09:35;;;;;;;2.45;1.58;;;20.80;99.90;;;;;;4996071;28;20498;-72
2022/08/31 11:12:17;;;;;;;6.30;1.73;;;20.90;99.90;;;;;;4996803;28;20128;-72
2022/08/31 11:15:08;;;;;;;3.97;2.97;;;20.90;99.90;;;;;;4985048;28;20022;-70
2022/08/31 11:17:50;;;;;;;2.85;1.73;;;21.00;99.90;;;;;;4992627;28;20457;-69
2022/08/31 11:20:40;;;;;;;2.90;2.00;;;21.20;99.90;;;;;;4968412;28;20073;-69
2022/08/31 11:23:54;;;;;;;3.80;2.38;;;21.50;99.90;;;;;;4996006;28;20036;-70
2022/08/31 11:26:39;;;;;;;2.13;1.42;;;21.80;99.90;;;;;;5000005;28;20074;-71
2022/08/31 11:29:19;;;;;;;3.17;2.10;;;22.10;99.90;;;;;;4984975;28;20026;-71
2022/08/31 11:31:45;;;;;;;3.33;1.87;;;22.30;99.90;;;;;;4974846;28;20031;-71
2022/08/31 11:34:25;;;;;;;6.03;2.67;;;22.20;99.90;;;;;;4987888;28;20037;-71
2022/08/31 11:37:02;;;;;;;3.35;1.65;;;22.30;99.90;;;;;;4985436;28;20367;-72
2022/08/31 11:39:35;;;;;;;3.47;1.92;;;22.60;99.90;;;;;;4995688;28;20030;-71
2022/08/31 11:42:11;;;;;;;3.25;1.67;;;22.50;99.90;;;;;;4996209;28;20035;-71
2022/08/31 11:44:38;;;;;;;2.20;1.45;;;22.30;99.90;;;;;;4981560;28;20030;-71
2022/08/31 11:47:29;;;;;;;2.03;1.38;;;22.00;99.90;;;;;;4999597;28;20608;-71
2022/08/31 11:50:04;;;;;;;6.57;1.50;;;22.20;99.90;;;;;;4991721;28;20058;-70
2022/08/31 11:52:37;;;;;;;10.55;2.17;;;22.40;99.90;;;;;;4975614;28;20125;-71
2022/08/31 11:55:44;;;;;;;4.13;2.40;;;22.20;99.90;;;;;;5008250;28;20114;-71
2022/08/31 11:58:24;;;;;;;3.33;1.67;;;22.30;99.90;;;;;;4994526;28;20042;-71
2022/08/31 12:01:09;;;;;;;7.90;2.58;;;22.60;99.90;;;;;;4989467;28;20415;-72
2022/08/31 12:03:51;;;;;;;4.65;2.45;;;22.80;99.90;;;;;;4991240;28;20045;-72
2022/08/31 12:06:30;;;;;;;3.15;1.55;;;22.80;99.90;;;;;;5003356;28;20034;-70
2022/08/31 12:09:22;;;;;;;3.28;2.13;;;22.80;99.90;;;;;;4998620;28;20030;-71
2022/08/31 12:12:36;;;;;;;5.90;2.03;;;22.90;99.90;;;;;;4998187;28;20475;-71
2022/08/31 12:15:24;;;;;;;6.15;2.47;;;23.00;99.90;;;;;;4958119;28;20046;-71
2022/08/31 12:18:03;;;;;;;3.53;1.63;;;23.20;99.90;;;;;;4974931;28;20112;-70
2022/08/31 12:24:24;;;;;;;6.07;2.30;;;23.20;99.90;;;;;;4993500;28;20525;-71
2022/08/31 12:27:08;;;;;;;3.03;1.60;;;23.10;99.90;;;;;;4994554;28;20536;-72
2022/08/31 12:29:38;;;;;;;2.70;1.88;;;23.30;99.90;;;;;;4973359;28;20065;-71
2022/08/31 12:32:15;;;;;;;3.27;1.80;;;23.50;99.90;;;;;;4991662;28;20608;-70
2022/08/31 12:35:13;;;;;;;2.85;1.90;;;23.40;99.90;;;;;;5010655;28;20779;-71
2022/08/31 12:37:41;;;;;;;4.60;2.15;;;23.80;99.90;;;;;;4998409;28;20049;-71
2022/08/31 12:40:21;;;;;;;2.80;1.85;;;23.60;99.90;;;;;;5009247;28;20033;-71
2022/08/31 12:43:00;;;;;;;3.63;1.77;;;23.90;99.90;;;;;;4997821;28;20034;-71
2022/08/31 12:45:53;;;;;;;4.05;1.77;;;24.10;99.90;;;;;;4991293;28;20604;-70
2022/08/31 12:48:37;;;;;;;3.25;1.80;;;24.30;99.90;;;;;;4997667;28;20040;-71
2022/08/31 12:51:08;;;;;;;2.75;1.40;;;24.20;99.90;;;;;;5005981;28;20034;-71
2022/08/31 12:53:46;;;;;;;4.60;1.90;;;24.20;99.90;;;;;;4993321;28;20073;-72
2022/08/31 12:56:18;;;;;;;3.22;1.70;;;24.30;99.90;;;;;;4974338;28;20035;-72
2022/08/31 12:59:32;;;;;;;5.32;1.70;;;24.30;99.90;;;;;;4994599;28;20168;-72
2022/08/31 13:01:59;;;;;;;2.88;1.65;;;24.40;99.90;;;;;;4982133;28;20026;-70
2022/08/31 13:04:26;;;;;;;5.55;2.25;;;24.40;99.90;;;;;;4981534;28;20088;-72
2022/08/31 13:06:52;;;;;;;5.22;2.13;;;24.10;99.90;;;;;;4981633;28;20434;-72
2022/08/31 13:09:27;;;;;;;2.03;1.23;;;24.20;99.90;;;;;;4977246;28;20030;-72
2022/08/31 13:11:58;;;;;;;5.80;1.88;;;24.30;99.90;;;;;;4992838;28;20026;-71
2022/08/31 13:14:38;;;;;;;3.22;1.77;;;24.40;99.90;;;;;;4973292;28;20475;-71
2022/08/31 13:17:20;;;;;;;3.35;1.50;;;24.70;99.90;;;;;;4982103;28;20042;-71
2022/08/31 13:19:57;;;;;;;3.92;1.83;;;24.90;99.90;;;;;;4984343;28;20037;-71
2022/08/31 13:22:29;;;;;;;6.82;1.70;;;24.80;99.90;;;;;;4981150;28;20037;-71
2022/08/31 13:25:09;;;;;;;3.30;1.67;;;24.90;99.90;;;;;;5007660;28;20117;-71
2022/08/31 13:27:38;;;;;;;2.77;1.57;;;25.30;99.90;;;;;;4982110;28;20434;-71
2022/08/31 13:30:19;;;;;;;3.85;1.98;;;26.00;99.90;;;;;;4992802;28;21005;-71
2022/08/31 13:32:51;;;;;;;3.42;1.95;;;26.60;99.90;;;;;;5003410;28;20490;-68
2022/08/31 13:35:25;;;;;;;4.75;2.08;;;27.50;99.90;;;;;;4980832;28;20030;-68
2022/08/31 13:38:04;;;;;;;3.80;1.80;;;27.30;99.90;;;;;;4980121;28;20364;-68